createdAt,value
2023-10-20T00:00:07.755Z,54.20
2023-10-20T00:01:12.746Z,54.06
2023-10-20T00:02:20.612Z,54.83
2023-10-20T00:03:25.674Z,54.64
2023-10-20T00:04:33.587Z,54.85
2023-10-20T00:05:38.903Z,54.61
2023-10-20T00:06:49.219Z,55.28
2023-10-20T00:07:55.848Z,55.22
2023-10-20T00:09:05.341Z,55.57
2023-10-20T00:10:13.107Z,55.29
2023-10-20T00:11:20.856Z,55.60
2023-10-20T00:12:25.967Z,55.51
2023-10-20T00:13:33.625Z,55.43
2023-10-20T00:14:38.636Z,55.68
2023-10-20T00:15:49.930Z,55.61
2023-10-20T00:16:54.987Z,55.54
2023-10-20T00:18:03.170Z,55.56
2023-10-20T00:19:08.801Z,55.80
2023-10-20T00:20:16.890Z,55.83
2023-10-20T00:21:22.175Z,56.03
2023-10-20T00:22:32.484Z,55.75
2023-10-20T00:23:37.486Z,55.36
2023-10-20T00:24:47.144Z,55.25
2023-10-20T00:25:52.145Z,55.26
2023-10-20T00:26:59.786Z,55.73
2023-10-20T00:28:05.159Z,55.63
2023-10-20T00:29:12.837Z,55.20
2023-10-20T00:30:17.863Z,55.18
2023-10-20T00:31:25.537Z,55.07
2023-10-20T00:32:32.744Z,55.50
2023-10-20T00:33:40.401Z,55.40
2023-10-20T00:34:45.649Z,55.43
2023-10-20T00:35:53.621Z,55.91
2023-10-20T00:36:58.561Z,55.55
2023-10-20T00:38:09.186Z,55.57
2023-10-20T00:39:14.653Z,55.73
2023-10-20T00:40:22.432Z,55.87
2023-10-20T00:41:27.470Z,55.95
2023-10-20T00:42:35.327Z,55.68
2023-10-20T00:43:41.159Z,55.49
2023-10-20T00:44:48.803Z,55.55
2023-10-20T00:45:54.044Z,55.89
2023-10-20T00:47:02.791Z,55.52
2023-10-20T00:48:08.513Z,55.40
2023-10-20T00:49:17.733Z,55.87
2023-10-20T00:50:22.925Z,55.78
2023-10-20T00:51:30.653Z,56.08
2023-10-20T00:52:37.844Z,56.35
2023-10-20T00:53:49.519Z,56.30
2023-10-20T00:54:56.812Z,56.23
2023-10-20T00:56:08.379Z,56.06
2023-10-20T00:57:14.680Z,56.47
2023-10-20T00:58:23.056Z,56.76
2023-10-20T00:59:29.436Z,56.88
2023-10-20T01:00:37.147Z,56.74
2023-10-20T01:01:42.135Z,56.70
2023-10-20T01:02:50.016Z,56.69
2023-10-20T01:03:55.233Z,55.84
2023-10-20T01:05:03.527Z,55.73
2023-10-20T01:06:08.554Z,56.21
2023-10-20T01:07:16.932Z,56.48
2023-10-20T01:08:22.009Z,56.43
2023-10-20T01:09:33.557Z,56.20
2023-10-20T01:10:38.615Z,56.82
2023-10-20T01:11:47.645Z,56.56
2023-10-20T01:12:52.834Z,56.61
2023-10-20T01:14:01.737Z,57.00
2023-10-20T01:15:08.396Z,56.58
2023-10-20T01:16:16.239Z,56.88
2023-10-20T01:17:21.614Z,56.64
2023-10-20T01:18:29.458Z,56.50
2023-10-20T01:19:35.366Z,56.55
2023-10-20T01:20:43.685Z,56.35
2023-10-20T01:21:48.840Z,56.10
2023-10-20T01:22:56.630Z,56.35
2023-10-20T01:24:05.530Z,56.57
2023-10-20T01:25:13.757Z,56.39
2023-10-20T01:26:19.624Z,55.60
2023-10-20T01:27:27.367Z,55.65
2023-10-20T01:28:32.400Z,55.85
2023-10-20T01:29:40.328Z,55.31
2023-10-20T01:30:45.296Z,56.11
2023-10-20T01:31:53.653Z,56.43
2023-10-20T01:32:58.761Z,56.74
2023-10-20T01:34:07.059Z,56.49
2023-10-20T01:35:12.465Z,56.48
2023-10-20T01:36:20.538Z,56.69
2023-10-20T01:37:25.573Z,56.44
2023-10-20T01:38:33.558Z,56.67
2023-10-20T01:39:41.412Z,56.46
2023-10-20T01:40:50.134Z,56.38
2023-10-20T01:41:55.114Z,55.55
2023-10-20T01:43:02.884Z,55.80
2023-10-20T01:44:07.896Z,55.83
2023-10-20T01:45:15.551Z,56.05
2023-10-20T01:46:22.216Z,56.32
2023-10-20T01:47:30.146Z,56.24
2023-10-20T01:48:35.256Z,56.06
2023-10-20T01:49:42.897Z,56.06
2023-10-20T01:50:47.862Z,56.28
2023-10-20T01:51:55.595Z,56.44
2023-10-20T01:53:01.738Z,56.64
2023-10-20T01:54:09.501Z,57.12
2023-10-20T01:55:17.342Z,57.20
2023-10-20T01:56:25.910Z,56.83
2023-10-20T01:57:31.099Z,56.80
2023-10-20T01:58:38.819Z,56.92
2023-10-20T01:59:43.982Z,57.20
2023-10-20T02:00:54.537Z,57.12
2023-10-20T02:02:01.600Z,57.23
2023-10-20T02:03:10.395Z,56.87
2023-10-20T02:04:15.529Z,56.66
2023-10-20T02:05:23.914Z,56.49
2023-10-20T02:06:29.080Z,56.41
2023-10-20T02:07:36.753Z,56.44
2023-10-20T02:08:42.011Z,56.64
2023-10-20T02:09:49.882Z,56.68
2023-10-20T02:10:57.885Z,56.94
2023-10-20T02:12:05.965Z,56.66
2023-10-20T02:13:12.210Z,56.68
2023-10-20T02:14:19.909Z,56.54
2023-10-20T02:15:24.957Z,56.80
2023-10-20T02:16:32.679Z,56.77
2023-10-20T02:17:38.270Z,56.90
2023-10-20T02:18:46.867Z,56.13
2023-10-20T02:19:51.896Z,56.60
2023-10-20T02:21:05.398Z,56.32
2023-10-20T02:22:10.396Z,56.30
2023-10-20T02:23:20.182Z,55.84
2023-10-20T02:24:25.517Z,55.91
2023-10-20T02:25:33.163Z,55.98
2023-10-20T02:26:41.114Z,56.15
2023-10-20T02:27:49.035Z,56.16
2023-10-20T02:28:54.066Z,56.12
2023-10-20T02:30:02.077Z,56.43
2023-10-20T02:31:15.442Z,56.04
2023-10-20T02:32:23.136Z,55.86
2023-10-20T02:33:28.507Z,56.59
2023-10-20T02:34:35.127Z,56.82
2023-10-20T02:35:46.357Z,56.95
2023-10-20T02:36:51.666Z,56.82
2023-10-20T02:37:59.426Z,56.91
2023-10-20T02:39:04.565Z,56.83
2023-10-20T02:40:13.934Z,56.78
2023-10-20T02:41:18.896Z,56.78
2023-10-20T02:42:30.179Z,57.00
2023-10-20T02:43:35.227Z,56.57
2023-10-20T02:44:43.772Z,56.16
2023-10-20T02:45:51.965Z,56.09
2023-10-20T02:46:59.688Z,55.98
2023-10-20T02:48:05.715Z,56.10
2023-10-20T02:49:13.366Z,56.17
2023-10-20T02:50:19.441Z,56.24
2023-10-20T02:51:28.360Z,55.85
2023-10-20T02:52:33.353Z,55.98
2023-10-20T02:53:41.381Z,56.33
2023-10-20T02:54:46.415Z,56.23
2023-10-20T02:55:54.045Z,55.97
2023-10-20T02:56:59.403Z,56.06
2023-10-20T02:58:07.175Z,56.48
2023-10-20T02:59:14.914Z,56.54
2023-10-20T03:00:20.744Z,56.30
2023-10-20T03:01:28.521Z,56.00
2023-10-20T03:02:33.686Z,56.29
2023-10-20T03:03:41.977Z,56.02
2023-10-20T03:04:47.381Z,55.91
2023-10-20T03:05:55.105Z,55.78
2023-10-20T03:07:00.063Z,55.50
2023-10-20T03:08:08.029Z,55.62
2023-10-20T03:09:15.928Z,55.10
2023-10-20T03:10:23.698Z,55.36
2023-10-20T03:11:28.760Z,55.15
2023-10-20T03:12:37.150Z,55.40
2023-10-20T03:13:44.942Z,55.62
2023-10-20T03:14:53.028Z,56.04
2023-10-20T03:15:58.601Z,55.87
2023-10-20T03:17:06.419Z,55.89
2023-10-20T03:18:15.415Z,55.77
2023-10-20T03:19:24.153Z,55.84
2023-10-20T03:20:30.427Z,55.99
2023-10-20T03:21:38.106Z,55.85
2023-10-20T03:22:43.339Z,55.86
2023-10-20T03:23:50.942Z,56.07
2023-10-20T03:24:56.975Z,55.96
2023-10-20T03:26:04.865Z,56.10
2023-10-20T03:27:10.083Z,56.11
2023-10-20T03:28:15.169Z,56.10
2023-10-20T03:29:25.597Z,56.21
2023-10-20T03:30:31.049Z,56.14
2023-10-20T03:31:39.761Z,56.37
2023-10-20T03:32:44.962Z,56.12
2023-10-20T03:33:52.894Z,56.14
2023-10-20T03:34:58.180Z,56.05
2023-10-20T03:36:07.580Z,55.52
2023-10-20T03:37:15.335Z,56.13
2023-10-20T03:38:23.246Z,56.18
2023-10-20T03:39:29.517Z,55.83
2023-10-20T03:40:39.808Z,56.08
2023-10-20T03:41:45.078Z,55.82
2023-10-20T03:42:53.059Z,55.85
2023-10-20T03:43:58.061Z,55.99
2023-10-20T03:45:11.508Z,56.10
2023-10-20T03:46:17.974Z,56.42
2023-10-20T03:47:29.783Z,56.35
2023-10-20T03:48:36.803Z,56.26
2023-10-20T03:49:44.485Z,56.22
2023-10-20T03:50:50.244Z,56.43
2023-10-20T03:51:58.758Z,56.47
2023-10-20T03:53:03.816Z,56.64
2023-10-20T03:54:12.183Z,56.59
2023-10-20T03:55:17.587Z,56.72
2023-10-20T03:56:26.110Z,56.65
2023-10-20T03:57:31.277Z,56.60
2023-10-20T03:58:39.413Z,56.72
2023-10-20T03:59:45.111Z,56.41
2023-10-20T04:00:59.188Z,56.71
2023-10-20T04:02:04.241Z,56.27
2023-10-20T04:03:12.643Z,56.38
2023-10-20T04:04:18.852Z,56.64
2023-10-20T04:05:27.884Z,56.87
2023-10-20T04:06:33.984Z,56.97
2023-10-20T04:07:41.624Z,56.94
2023-10-20T04:08:46.688Z,57.38
2023-10-20T04:09:54.471Z,57.40
2023-10-20T04:10:59.827Z,57.02
2023-10-20T04:12:08.966Z,56.98
2023-10-20T04:13:14.764Z,57.50
2023-10-20T04:14:22.508Z,57.11
2023-10-20T04:15:28.562Z,57.34
2023-10-20T04:16:41.697Z,57.21
2023-10-20T04:17:53.831Z,57.37
2023-10-20T04:19:03.449Z,57.51
2023-10-20T04:20:17.371Z,57.46
2023-10-20T04:21:26.928Z,57.49
2023-10-20T04:22:31.840Z,57.46
2023-10-20T04:23:39.652Z,57.95
2023-10-20T04:24:46.441Z,57.94
2023-10-20T04:25:57.353Z,57.90
2023-10-20T04:27:06.882Z,57.65
2023-10-20T04:28:17.167Z,58.04
2023-10-20T04:29:36.231Z,57.87
2023-10-20T04:30:55.758Z,57.87
2023-10-20T04:32:18.391Z,58.06
2023-10-20T04:33:38.039Z,57.98
2023-10-20T04:34:57.610Z,57.75
2023-10-20T04:36:17.144Z,57.67
2023-10-20T04:37:36.673Z,57.66
2023-10-20T04:38:56.253Z,57.95
2023-10-20T04:40:15.824Z,57.79
2023-10-20T04:41:35.472Z,57.72
2023-10-20T04:42:58.658Z,58.20
2023-10-20T04:44:18.251Z,57.80
2023-10-20T04:45:37.826Z,57.85
2023-10-20T04:46:57.445Z,58.17
2023-10-20T04:48:22.504Z,58.49
2023-10-20T04:49:59.937Z,58.74
2023-10-20T04:51:20.030Z,58.86
2023-10-20T04:52:51.539Z,59.02
2023-10-20T04:54:05.991Z,58.96
2023-10-20T04:55:28.221Z,58.92
2023-10-20T04:56:40.969Z,58.80
2023-10-20T04:57:54.328Z,58.86
2023-10-20T04:59:07.226Z,58.85
2023-10-20T05:00:27.933Z,58.24
2023-10-20T05:01:45.094Z,58.10
2023-10-20T05:03:00.750Z,57.82
2023-10-20T05:04:16.092Z,57.72
2023-10-20T05:05:30.290Z,57.80
2023-10-20T05:06:44.510Z,57.69
2023-10-20T05:07:53.217Z,57.45
2023-10-20T05:08:58.224Z,57.07
2023-10-20T05:10:06.841Z,57.54
2023-10-20T05:11:11.765Z,57.57
2023-10-20T05:12:19.395Z,57.37
2023-10-20T05:13:24.573Z,57.56
2023-10-20T05:14:32.630Z,57.89
2023-10-20T05:15:40.638Z,58.31
2023-10-20T05:16:48.300Z,58.47
2023-10-20T05:17:54.260Z,58.32
2023-10-20T05:19:02.723Z,58.62
2023-10-20T05:20:11.953Z,58.64
2023-10-20T05:21:20.490Z,58.47
2023-10-20T05:22:25.482Z,58.39
2023-10-20T05:23:33.124Z,58.45
2023-10-20T05:24:38.114Z,58.34
2023-10-20T05:25:51.867Z,58.31
2023-10-20T05:26:56.741Z,58.20
2023-10-20T05:28:04.980Z,58.13
2023-10-20T05:29:10.054Z,58.61
2023-10-20T05:30:18.336Z,58.42
2023-10-20T05:31:26.444Z,58.11
2023-10-20T05:32:34.204Z,58.73
2023-10-20T05:33:39.264Z,58.70
2023-10-20T05:34:46.888Z,58.88
2023-10-20T05:35:54.839Z,58.69
2023-10-20T05:37:02.433Z,58.81
2023-10-20T05:38:07.856Z,58.88
2023-10-20T05:39:15.791Z,58.96
2023-10-20T05:40:20.668Z,58.87
2023-10-20T05:41:28.447Z,59.22
2023-10-20T05:42:33.766Z,59.27
2023-10-20T05:43:43.042Z,59.57
2023-10-20T05:45:02.852Z,59.42
2023-10-20T05:46:19.760Z,59.15
2023-10-20T05:47:25.595Z,59.40
2023-10-20T05:48:33.404Z,59.03
2023-10-20T05:49:38.321Z,59.26
2023-10-20T05:50:43.244Z,59.14
2023-10-20T05:51:53.690Z,59.33
2023-10-20T05:52:58.590Z,58.95
2023-10-20T05:54:07.017Z,59.34
2023-10-20T05:55:12.272Z,59.50
2023-10-20T05:56:19.980Z,59.45
2023-10-20T05:57:25.109Z,59.58
2023-10-20T05:58:34.777Z,59.46
2023-10-20T05:59:42.627Z,59.34
2023-10-20T06:01:02.253Z,59.27
2023-10-20T06:02:09.471Z,59.65
2023-10-20T06:03:17.213Z,59.50
2023-10-20T06:04:22.650Z,59.85
2023-10-20T06:05:30.521Z,59.53
2023-10-20T06:06:35.577Z,59.77
2023-10-20T06:07:45.966Z,59.78
2023-10-20T06:08:51.753Z,59.79
2023-10-20T06:09:59.382Z,59.59
2023-10-20T06:11:04.909Z,59.84
2023-10-20T06:12:13.364Z,59.88
2023-10-20T06:13:18.521Z,59.65
2023-10-20T06:14:26.236Z,60.15
2023-10-20T06:15:31.248Z,59.92
2023-10-20T06:16:38.906Z,60.11
2023-10-20T06:17:44.477Z,60.03
2023-10-20T06:18:52.281Z,59.99
2023-10-20T06:19:57.372Z,60.25
2023-10-20T06:21:04.961Z,60.21
2023-10-20T06:22:09.906Z,60.19
2023-10-20T06:23:21.101Z,60.45
2023-10-20T06:24:26.149Z,59.97
2023-10-20T06:25:37.594Z,60.18
2023-10-20T06:26:42.921Z,60.59
2023-10-20T06:27:50.885Z,60.42
2023-10-20T06:28:55.813Z,60.92
2023-10-20T06:30:07.941Z,60.70
2023-10-20T06:31:29.098Z,60.63
2023-10-20T06:32:44.104Z,61.10
2023-10-20T06:33:50.500Z,60.93
2023-10-20T06:35:02.381Z,61.06
2023-10-20T06:36:12.464Z,61.35
2023-10-20T06:37:27.948Z,61.01
2023-10-20T06:38:38.255Z,61.26
2023-10-20T06:39:46.180Z,61.04
2023-10-20T06:40:51.108Z,61.09
2023-10-20T06:41:58.829Z,61.30
2023-10-20T06:43:05.951Z,61.36
2023-10-20T06:44:13.522Z,61.33
2023-10-20T06:45:18.583Z,60.95
2023-10-20T06:46:29.069Z,61.10
2023-10-20T06:47:34.745Z,61.09
2023-10-20T06:48:42.617Z,61.09
2023-10-20T06:49:47.537Z,61.08
2023-10-20T06:50:53.697Z,61.05
2023-10-20T06:52:06.069Z,60.96
2023-10-20T06:53:11.113Z,61.21
2023-10-20T06:54:21.561Z,61.22
2023-10-20T06:55:50.922Z,60.90
2023-10-20T06:56:54.324Z,61.00
2023-10-20T06:57:59.429Z,61.17
2023-10-20T06:59:07.219Z,61.38
2023-10-20T07:00:18.897Z,61.28
2023-10-20T07:01:28.808Z,61.34
2023-10-20T07:02:33.945Z,61.12
2023-10-20T07:03:41.911Z,61.46
2023-10-20T07:04:47.055Z,61.45
2023-10-20T07:05:54.792Z,61.24
2023-10-20T07:06:59.779Z,61.03
2023-10-20T07:08:07.831Z,61.27
2023-10-20T07:09:14.131Z,61.35
2023-10-20T07:10:26.379Z,61.65
2023-10-20T07:11:31.319Z,61.53
2023-10-20T07:12:38.964Z,61.66
2023-10-20T07:13:46.252Z,61.87
2023-10-20T07:14:53.922Z,61.84
2023-10-20T07:15:59.635Z,61.82
2023-10-20T07:17:08.708Z,61.83
2023-10-20T07:18:14.475Z,62.15
2023-10-20T07:19:22.376Z,61.78
2023-10-20T07:20:27.398Z,62.15
2023-10-20T07:21:35.406Z,62.17
2023-10-20T07:22:40.306Z,62.41
2023-10-20T07:23:48.064Z,62.57
2023-10-20T07:24:53.154Z,62.65
2023-10-20T07:26:04.115Z,62.74
2023-10-20T07:27:09.017Z,62.77
2023-10-20T07:28:16.789Z,62.52
2023-10-20T07:29:21.806Z,62.94
2023-10-20T07:30:29.504Z,62.87
2023-10-20T07:31:34.559Z,63.04
2023-10-20T07:32:43.330Z,63.26
2023-10-20T07:33:48.335Z,62.93
2023-10-20T07:34:56.454Z,63.02
2023-10-20T07:36:04.771Z,63.27
2023-10-20T07:37:12.670Z,63.46
2023-10-20T07:38:19.022Z,63.07
2023-10-20T07:39:26.694Z,62.99
2023-10-20T07:40:36.626Z,63.17
2023-10-20T07:41:46.993Z,63.49
2023-10-20T07:42:51.960Z,63.46
2023-10-20T07:44:00.666Z,63.33
2023-10-20T07:45:06.407Z,63.56
2023-10-20T07:46:20.564Z,63.90
2023-10-20T07:47:25.796Z,63.43
2023-10-20T07:48:35.085Z,63.07
2023-10-20T07:49:42.174Z,63.52
2023-10-20T07:50:49.956Z,63.67
2023-10-20T07:51:55.055Z,63.62
2023-10-20T07:53:02.993Z,63.70
2023-10-20T07:54:08.084Z,64.08
2023-10-20T07:55:16.478Z,64.10
2023-10-20T07:56:21.805Z,64.38
2023-10-20T07:57:32.080Z,64.34
2023-10-20T07:58:36.974Z,64.54
2023-10-20T07:59:44.748Z,64.55
2023-10-20T08:00:49.681Z,64.77
2023-10-20T08:01:57.772Z,64.85
2023-10-20T08:03:02.863Z,64.86
2023-10-20T08:04:11.356Z,64.92
2023-10-20T08:05:16.742Z,65.10
2023-10-20T08:06:25.193Z,65.14
2023-10-20T08:07:30.614Z,65.07
2023-10-20T08:08:38.372Z,64.90
2023-10-20T08:09:43.359Z,64.91
2023-10-20T08:10:52.238Z,65.07
2023-10-20T08:11:58.947Z,64.96
2023-10-20T08:13:10.187Z,65.23
2023-10-20T08:14:15.629Z,65.13
2023-10-20T08:15:23.870Z,65.09
2023-10-20T08:16:28.894Z,65.14
2023-10-20T08:17:36.871Z,65.31
2023-10-20T08:18:41.857Z,64.99
2023-10-20T08:19:50.216Z,65.29
2023-10-20T08:21:04.181Z,65.22
2023-10-20T08:22:11.766Z,65.39
2023-10-20T08:23:16.677Z,65.38
2023-10-20T08:24:24.256Z,65.52
2023-10-20T08:25:29.523Z,65.46
2023-10-20T08:26:37.254Z,65.32
2023-10-20T08:27:42.249Z,65.39
2023-10-20T08:28:54.065Z,64.97
2023-10-20T08:29:59.792Z,64.65
2023-10-20T08:31:12.004Z,64.34
2023-10-20T08:32:17.154Z,64.62
2023-10-20T08:33:24.856Z,64.68
2023-10-20T08:34:29.737Z,64.83
2023-10-20T08:35:40.008Z,64.54
2023-10-20T08:36:44.986Z,64.68
2023-10-20T08:37:52.576Z,64.33
2023-10-20T08:38:57.647Z,64.22
2023-10-20T08:40:12.201Z,64.25
2023-10-20T08:41:18.765Z,64.49
2023-10-20T08:42:26.729Z,64.63
2023-10-20T08:43:32.288Z,64.76
2023-10-20T08:44:43.278Z,64.34
2023-10-20T08:45:48.631Z,64.93
2023-10-20T08:46:57.610Z,64.63
2023-10-20T08:48:05.121Z,64.89
2023-10-20T08:49:13.432Z,64.56
2023-10-20T08:50:21.486Z,65.06
2023-10-20T08:51:29.325Z,64.83
2023-10-20T08:52:37.252Z,64.98
2023-10-20T08:53:46.643Z,65.18
2023-10-20T08:54:51.888Z,65.31
2023-10-20T08:55:59.542Z,65.31
2023-10-20T08:57:04.797Z,65.68
2023-10-20T08:58:12.707Z,65.44
2023-10-20T08:59:17.653Z,65.54
2023-10-20T09:01:36.257Z,65.78
2023-10-20T09:02:44.951Z,65.69
2023-10-20T09:03:52.042Z,65.97
2023-10-20T09:04:59.734Z,65.74
2023-10-20T09:06:08.419Z,65.89
2023-10-20T09:07:19.348Z,66.02
2023-10-20T09:08:29.123Z,65.82
2023-10-20T09:09:36.899Z,65.90
2023-10-20T09:10:45.135Z,65.88
2023-10-20T09:11:53.692Z,65.88
2023-10-20T09:12:58.686Z,65.88
2023-10-20T09:14:06.399Z,65.82
2023-10-20T09:15:13.035Z,65.67
2023-10-20T09:16:23.523Z,65.59
2023-10-20T09:17:29.442Z,65.86
2023-10-20T09:18:34.909Z,65.38
2023-10-20T09:19:43.667Z,65.29
2023-10-20T09:20:48.649Z,65.08
2023-10-20T09:21:54.534Z,65.46
2023-10-20T09:23:02.327Z,65.07
2023-10-20T09:24:09.989Z,65.17
2023-10-20T09:25:17.747Z,64.93
2023-10-20T09:26:22.812Z,65.03
2023-10-20T09:27:30.912Z,65.00
2023-10-20T09:28:37.720Z,65.28
2023-10-20T09:29:47.208Z,65.04
2023-10-20T09:30:55.388Z,65.31
2023-10-20T09:32:07.714Z,65.29
2023-10-20T09:33:14.956Z,65.43
2023-10-20T09:34:22.864Z,65.57
2023-10-20T09:35:28.587Z,65.73
2023-10-20T09:36:37.685Z,65.69
2023-10-20T09:37:45.034Z,65.43
2023-10-20T09:38:56.778Z,65.33
2023-10-20T09:40:08.128Z,65.34
2023-10-20T09:41:17.390Z,65.39
2023-10-20T09:42:28.246Z,65.30
2023-10-20T09:43:38.043Z,65.71
2023-10-20T09:44:54.468Z,65.72
2023-10-20T09:46:16.477Z,65.40
2023-10-20T09:47:29.632Z,65.79
2023-10-20T09:48:38.918Z,65.53
2023-10-20T09:49:44.529Z,65.48
2023-10-20T09:50:53.214Z,65.46
2023-10-20T09:51:58.987Z,65.60
2023-10-20T09:53:07.086Z,65.09
2023-10-20T09:54:12.552Z,65.30
2023-10-20T09:55:21.485Z,65.30
2023-10-20T09:56:27.181Z,65.13
2023-10-20T09:57:35.238Z,65.08
2023-10-20T09:58:40.559Z,65.07
2023-10-20T09:59:48.497Z,65.30
2023-10-20T10:00:53.515Z,65.59
2023-10-20T10:02:01.981Z,65.23
2023-10-20T10:03:10.890Z,65.68
2023-10-20T10:04:18.836Z,65.47
2023-10-20T10:05:25.552Z,65.88
2023-10-20T10:06:40.466Z,65.60
2023-10-20T10:07:47.574Z,65.65
2023-10-20T10:08:59.283Z,65.92
2023-10-20T10:10:08.220Z,65.68
2023-10-20T10:11:31.513Z,65.83
2023-10-20T10:12:36.546Z,65.96
2023-10-20T10:13:47.326Z,65.89
2023-10-20T10:14:59.280Z,65.53
2023-10-20T10:16:16.436Z,65.74
2023-10-20T10:17:24.419Z,66.01
2023-10-20T10:18:37.311Z,65.93
2023-10-20T10:19:55.344Z,65.79
2023-10-20T10:21:05.790Z,66.19
2023-10-20T10:22:19.779Z,66.16
2023-10-20T10:23:30.991Z,66.46
2023-10-20T10:24:41.313Z,66.27
2023-10-20T10:25:48.754Z,66.67
2023-10-20T10:26:58.755Z,66.71
2023-10-20T10:28:14.664Z,66.84
2023-10-20T10:29:24.253Z,66.98
2023-10-20T10:30:30.079Z,66.79
2023-10-20T10:31:47.774Z,66.99
2023-10-20T10:33:01.032Z,67.11
2023-10-20T10:34:08.816Z,67.18
2023-10-20T10:35:24.212Z,67.18
2023-10-20T10:36:29.493Z,67.35
2023-10-20T10:37:38.987Z,67.44
2023-10-20T10:38:47.060Z,67.46
2023-10-20T10:39:52.692Z,67.77
2023-10-20T10:41:00.614Z,67.63
2023-10-20T10:42:07.511Z,67.91
2023-10-20T10:43:21.535Z,67.80
2023-10-20T10:44:26.571Z,67.89
2023-10-20T10:45:36.142Z,68.04
2023-10-20T10:46:42.858Z,67.93
2023-10-20T10:47:50.939Z,67.76
2023-10-20T10:48:58.151Z,67.58
2023-10-20T10:50:09.050Z,67.61
2023-10-20T10:51:14.135Z,67.45
2023-10-20T10:52:21.757Z,67.38
2023-10-20T10:53:29.145Z,67.38
2023-10-20T10:54:38.227Z,67.16
2023-10-20T10:55:44.170Z,67.16
2023-10-20T10:56:52.326Z,66.95
2023-10-20T10:57:58.672Z,67.01
2023-10-20T10:59:06.548Z,66.75
2023-10-20T11:00:17.649Z,66.68
2023-10-20T11:01:25.576Z,66.83
2023-10-20T11:02:31.143Z,66.66
2023-10-20T11:03:39.560Z,66.94
2023-10-20T11:04:45.471Z,66.55
2023-10-20T11:05:56.102Z,66.75
2023-10-20T11:07:01.383Z,67.24
2023-10-20T11:08:13.967Z,67.61
2023-10-20T11:09:21.629Z,68.20
2023-10-20T11:10:31.727Z,68.81
2023-10-20T11:11:41.631Z,69.33
2023-10-20T11:12:54.604Z,69.64
2023-10-20T11:14:00.469Z,70.18
2023-10-20T11:15:10.399Z,70.44
2023-10-20T11:16:16.931Z,70.78
2023-10-20T11:17:25.725Z,71.31
2023-10-20T11:18:31.213Z,71.14
2023-10-20T11:19:39.340Z,71.38
2023-10-20T11:20:46.193Z,71.63
2023-10-20T11:21:57.194Z,71.58
2023-10-20T11:23:02.808Z,71.61
2023-10-20T11:24:09.822Z,72.00
2023-10-20T11:25:24.472Z,71.96
2023-10-20T11:26:30.105Z,71.98
2023-10-20T11:27:48.690Z,72.20
2023-10-20T11:28:53.939Z,72.18
2023-10-20T11:30:04.291Z,72.27
2023-10-20T11:31:09.364Z,71.95
2023-10-20T11:32:20.482Z,71.96
2023-10-20T11:33:26.222Z,72.14
2023-10-20T11:34:34.073Z,71.91
2023-10-20T11:35:39.203Z,71.89
2023-10-20T11:36:46.818Z,72.37
2023-10-20T11:37:55.390Z,72.03
2023-10-20T11:39:03.067Z,72.04
2023-10-20T11:40:10.044Z,72.28
2023-10-20T11:41:17.792Z,72.04
2023-10-20T11:42:22.849Z,71.79
2023-10-20T11:43:30.504Z,71.79
2023-10-20T11:44:35.836Z,72.12
2023-10-20T11:45:43.632Z,72.05
2023-10-20T11:46:48.533Z,71.95
2023-10-20T11:47:56.677Z,71.86
2023-10-20T11:49:01.761Z,71.80
2023-10-20T11:50:10.605Z,71.59
2023-10-20T11:51:16.238Z,71.29
2023-10-20T11:52:24.798Z,71.00
2023-10-20T11:53:32.558Z,70.87
2023-10-20T11:54:40.233Z,70.53
2023-10-20T11:55:45.154Z,70.71
2023-10-20T11:56:53.347Z,71.01
2023-10-20T11:57:58.371Z,71.07
2023-10-20T11:59:06.050Z,71.06
2023-10-20T12:00:12.267Z,71.22
2023-10-20T12:01:20.959Z,71.54
2023-10-20T12:02:26.216Z,71.58
2023-10-20T12:03:34.271Z,71.94
2023-10-20T12:04:39.323Z,71.95
2023-10-20T12:05:48.454Z,71.88
2023-10-20T12:06:53.516Z,71.58
2023-10-20T12:08:03.325Z,71.73
2023-10-20T12:09:14.571Z,71.91
2023-10-20T12:10:25.698Z,71.62
2023-10-20T12:11:30.761Z,71.83
2023-10-20T12:12:38.862Z,71.97
2023-10-20T12:13:49.235Z,71.54
2023-10-20T12:14:57.277Z,71.39
2023-10-20T12:16:02.227Z,71.61
2023-10-20T12:17:09.874Z,71.01
2023-10-20T12:18:14.890Z,71.36
2023-10-20T12:19:23.556Z,71.25
2023-10-20T12:20:28.538Z,70.92
2023-10-20T12:21:36.742Z,70.90
2023-10-20T12:22:41.674Z,71.05
2023-10-20T12:23:49.418Z,71.08
2023-10-20T12:24:57.238Z,70.92
2023-10-20T12:26:05.124Z,70.48
2023-10-20T12:27:14.430Z,70.52
2023-10-20T12:28:22.955Z,70.24
2023-10-20T12:29:27.901Z,70.27
2023-10-20T12:30:35.538Z,70.29
2023-10-20T12:31:40.572Z,70.16
2023-10-20T12:32:50.361Z,70.40
2023-10-20T12:33:56.731Z,69.91
2023-10-20T12:35:04.383Z,70.13
2023-10-20T12:36:09.879Z,70.13
2023-10-20T12:37:17.525Z,70.36
2023-10-20T12:38:22.568Z,69.90
2023-10-20T12:39:30.389Z,70.19
2023-10-20T12:40:41.220Z,70.20
2023-10-20T12:41:48.875Z,70.25
2023-10-20T12:42:54.094Z,69.85
2023-10-20T12:44:01.702Z,69.51
2023-10-20T12:45:07.478Z,69.23
2023-10-20T12:46:16.240Z,69.31
2023-10-20T12:47:21.696Z,69.38
2023-10-20T12:48:29.583Z,68.95
2023-10-20T12:49:34.881Z,69.40
2023-10-20T12:50:43.320Z,69.29
2023-10-20T12:51:48.347Z,69.12
2023-10-20T12:52:56.092Z,69.34
2023-10-20T12:54:01.045Z,69.42
2023-10-20T12:55:12.380Z,69.36
2023-10-20T12:56:21.498Z,69.47
2023-10-20T12:57:29.275Z,69.03
2023-10-20T12:58:34.665Z,68.79
2023-10-20T12:59:42.295Z,69.16
2023-10-20T13:00:47.298Z,69.09
2023-10-20T13:01:55.783Z,69.42
2023-10-20T13:03:01.608Z,68.83
2023-10-20T13:04:09.798Z,68.94
2023-10-20T13:05:14.799Z,69.02
2023-10-20T13:06:22.494Z,68.79
2023-10-20T13:07:27.424Z,68.67
2023-10-20T13:08:35.155Z,68.83
2023-10-20T13:09:40.250Z,68.59
2023-10-20T13:10:49.509Z,68.54
2023-10-20T13:11:58.217Z,68.86
2023-10-20T13:13:05.951Z,68.62
2023-10-20T13:14:10.965Z,68.67
2023-10-20T13:15:21.202Z,68.98
2023-10-20T13:16:26.222Z,68.55
2023-10-20T13:17:35.361Z,68.82
2023-10-20T13:18:40.559Z,68.70
2023-10-20T13:19:48.351Z,68.39
2023-10-20T13:20:53.339Z,68.58
2023-10-20T13:22:00.976Z,68.27
2023-10-20T13:23:06.371Z,68.64
2023-10-20T13:24:14.533Z,68.45
2023-10-20T13:25:21.272Z,68.19
2023-10-20T13:26:28.987Z,68.33
2023-10-20T13:27:36.642Z,68.29
2023-10-20T13:28:44.334Z,68.41
2023-10-20T13:29:49.394Z,68.23
2023-10-20T13:31:08.977Z,68.09
2023-10-20T13:32:14.502Z,67.49
2023-10-20T13:33:22.375Z,67.78
2023-10-20T13:34:27.355Z,67.42
2023-10-20T13:35:35.257Z,67.82
2023-10-20T13:36:40.222Z,67.60
2023-10-20T13:37:45.200Z,67.54
2023-10-20T13:38:53.265Z,67.48
2023-10-20T13:39:58.428Z,67.14
2023-10-20T13:41:06.332Z,67.43
2023-10-20T13:42:11.405Z,67.20
2023-10-20T13:43:22.288Z,67.06
2023-10-20T13:44:27.781Z,67.08
2023-10-20T13:45:35.559Z,66.53
2023-10-20T13:46:41.233Z,66.64
2023-10-20T13:47:50.516Z,66.38
2023-10-20T13:48:57.502Z,66.28
2023-10-20T13:50:06.227Z,66.47
2023-10-20T13:51:11.204Z,66.12
2023-10-20T13:52:16.129Z,66.33
2023-10-20T13:53:23.888Z,66.07
2023-10-20T13:54:29.837Z,65.74
2023-10-20T13:55:37.658Z,66.15
2023-10-20T13:56:42.688Z,66.08
2023-10-20T13:57:50.598Z,65.67
2023-10-20T13:58:58.190Z,65.24
2023-10-20T14:00:08.599Z,65.50
2023-10-20T14:01:13.715Z,65.60
2023-10-20T14:02:22.304Z,65.65
2023-10-20T14:03:28.114Z,65.54
2023-10-20T14:04:35.914Z,65.65
2023-10-20T14:05:40.992Z,65.44
2023-10-20T14:06:48.698Z,65.15
2023-10-20T14:07:53.827Z,64.89
2023-10-20T14:09:01.575Z,65.08
2023-10-20T14:10:07.939Z,64.86
2023-10-20T14:11:16.686Z,65.13
2023-10-20T14:12:21.830Z,64.81
2023-10-20T14:13:30.075Z,65.11
2023-10-20T14:14:38.132Z,65.12
2023-10-20T14:15:48.426Z,64.64
2023-10-20T14:16:55.952Z,64.62
2023-10-20T14:18:03.862Z,64.47
2023-10-20T14:19:09.112Z,64.45
2023-10-20T14:20:17.151Z,64.14
2023-10-20T14:21:22.172Z,64.29
2023-10-20T14:22:31.514Z,63.88
2023-10-20T14:23:40.743Z,64.07
2023-10-20T14:24:48.417Z,64.07
2023-10-20T14:25:58.483Z,63.84
2023-10-20T14:27:06.198Z,63.72
2023-10-20T14:28:11.155Z,63.55
2023-10-20T14:29:19.915Z,63.52
2023-10-20T14:30:27.542Z,63.43
2023-10-20T14:31:35.544Z,63.32
2023-10-20T14:32:40.692Z,63.55
2023-10-20T14:33:48.428Z,63.26
2023-10-20T14:34:53.771Z,63.49
2023-10-20T14:36:02.138Z,63.36
2023-10-20T14:37:09.507Z,63.50
2023-10-20T14:38:17.128Z,63.27